createdAt,value
2022-11-16T00:00:17.147Z,2.30
2022-11-16T00:00:49.156Z,2.10
2022-11-16T00:01:22.261Z,2.43
2022-11-16T00:01:54.444Z,2.00
2022-11-16T00:02:26.525Z,2.60
2022-11-16T00:03:01.315Z,2.50
2022-11-16T00:03:33.715Z,2.37
2022-11-16T00:04:05.834Z,2.10
2022-11-16T00:04:37.865Z,2.10
2022-11-16T00:05:09.884Z,2.37
2022-11-16T00:05:41.819Z,2.47
2022-11-16T00:06:14.515Z,2.40
2022-11-16T00:06:48.813Z,2.20
2022-11-16T00:07:20.898Z,2.63
2022-11-16T00:07:52.895Z,2.17
2022-11-16T00:08:25.149Z,2.20
2022-11-16T00:09:20.361Z,2.37
2022-11-16T00:09:52.359Z,2.37
2022-11-16T00:10:24.506Z,2.57
2022-11-16T00:11:03.909Z,2.40
2022-11-16T00:11:36.462Z,2.47
2022-11-16T00:12:10.995Z,2.33
2022-11-16T00:12:43.022Z,2.30
2022-11-16T00:13:14.983Z,2.43
2022-11-16T00:13:46.936Z,2.30
2022-11-16T00:14:19.707Z,2.30
2022-11-16T00:14:52.146Z,2.37
2022-11-16T00:15:24.109Z,2.57
2022-11-16T00:15:56.910Z,2.10
2022-11-16T00:16:28.899Z,2.20
2022-11-16T00:17:01.054Z,2.40
2022-11-16T00:17:33.202Z,2.40
2022-11-16T00:18:05.202Z,2.60
2022-11-16T00:18:37.187Z,2.37
2022-11-16T00:19:10.149Z,2.07
2022-11-16T00:19:42.183Z,2.50
2022-11-16T00:20:14.234Z,2.50
2022-11-16T00:20:46.202Z,2.60
2022-11-16T00:21:18.456Z,2.40
2022-11-16T00:21:50.960Z,2.30
2022-11-16T00:22:22.921Z,2.47
2022-11-16T00:22:54.899Z,2.57
2022-11-16T00:23:26.899Z,2.23
2022-11-16T00:23:59.120Z,2.67
2022-11-16T00:24:31.140Z,2.17
2022-11-16T00:25:03.158Z,2.20
2022-11-16T00:25:35.153Z,2.33
2022-11-16T00:26:08.266Z,2.43
2022-11-16T00:26:40.377Z,2.40
2022-11-16T00:27:12.438Z,2.23
2022-11-16T00:27:44.719Z,2.40
2022-11-16T00:28:16.870Z,2.37
2022-11-16T00:28:48.892Z,2.60
2022-11-16T00:29:22.163Z,2.20
2022-11-16T00:29:54.505Z,2.50
2022-11-16T00:30:26.653Z,2.33
2022-11-16T00:31:02.396Z,2.43
2022-11-16T00:31:34.791Z,2.40
2022-11-16T00:32:06.854Z,2.33
2022-11-16T00:32:38.839Z,2.17
2022-11-16T00:33:14.445Z,2.57
2022-11-16T00:33:46.695Z,2.43
2022-11-16T00:34:18.753Z,2.40
2022-11-16T00:34:50.776Z,2.57
2022-11-16T00:35:22.889Z,2.00
2022-11-16T00:35:54.943Z,2.20
2022-11-16T00:36:27.000Z,1.97
2022-11-16T00:36:59.272Z,2.40
2022-11-16T00:37:31.323Z,2.60
2022-11-16T00:38:03.333Z,2.60
2022-11-16T00:38:35.656Z,2.27
2022-11-16T00:39:10.222Z,2.20
2022-11-16T00:39:42.532Z,2.03
2022-11-16T00:40:17.906Z,2.40
2022-11-16T00:40:50.166Z,2.20
2022-11-16T00:41:22.268Z,2.50
2022-11-16T00:41:54.319Z,1.93
2022-11-16T00:42:26.596Z,2.07
2022-11-16T00:42:58.639Z,2.73
2022-11-16T00:43:30.662Z,2.40
2022-11-16T00:44:02.688Z,2.60
2022-11-16T00:44:34.887Z,2.07
2022-11-16T00:45:07.246Z,2.53
2022-11-16T00:45:40.610Z,2.20
2022-11-16T00:46:12.615Z,2.60
2022-11-16T00:46:44.681Z,2.23
2022-11-16T00:47:16.753Z,2.13
2022-11-16T00:47:48.752Z,2.63
2022-11-16T00:48:21.038Z,2.23
2022-11-16T00:48:53.306Z,2.20
2022-11-16T00:49:25.327Z,2.20
2022-11-16T00:49:58.015Z,2.00
2022-11-16T00:50:29.980Z,2.40
2022-11-16T00:51:02.217Z,2.20
2022-11-16T00:51:35.203Z,2.10
2022-11-16T00:52:07.311Z,2.57
2022-11-16T00:52:39.323Z,2.07
2022-11-16T00:53:15.675Z,2.40
2022-11-16T00:53:48.544Z,2.20
2022-11-16T00:54:20.587Z,2.13
2022-11-16T00:54:52.577Z,2.27
2022-11-16T00:55:24.735Z,2.20
2022-11-16T00:55:56.780Z,2.00
2022-11-16T00:56:29.085Z,1.87
2022-11-16T00:57:01.075Z,2.60
2022-11-16T00:57:33.257Z,1.90
2022-11-16T00:58:05.304Z,2.13
2022-11-16T00:58:37.403Z,2.00
2022-11-16T00:59:12.711Z,2.20
2022-11-16T00:59:47.046Z,2.40
2022-11-16T01:00:19.234Z,2.00
2022-11-16T01:00:51.426Z,2.37
2022-11-16T01:01:23.609Z,2.03
2022-11-16T01:01:56.488Z,2.20
2022-11-16T01:02:29.182Z,2.20
2022-11-16T01:03:01.359Z,2.33
2022-11-16T01:03:33.907Z,1.90
2022-11-16T01:04:07.377Z,2.20
2022-11-16T01:04:39.390Z,2.00
2022-11-16T01:05:11.616Z,2.03
2022-11-16T01:05:43.627Z,1.93
2022-11-16T01:06:16.191Z,2.10
2022-11-16T01:06:48.183Z,2.33
2022-11-16T01:07:20.652Z,2.30
2022-11-16T01:07:52.698Z,2.00
2022-11-16T01:08:24.668Z,2.50
2022-11-16T01:08:56.668Z,2.00
2022-11-16T01:09:28.860Z,1.80
2022-11-16T01:10:00.824Z,2.53
2022-11-16T01:10:33.265Z,2.10
2022-11-16T01:11:24.303Z,2.30
2022-11-16T01:12:12.526Z,2.00
2022-11-16T01:12:48.198Z,2.30
2022-11-16T01:13:20.201Z,2.37
2022-11-16T01:13:52.376Z,2.10
2022-11-16T01:14:24.955Z,1.87
2022-11-16T01:14:57.044Z,1.77
2022-11-16T01:15:29.058Z,2.00
2022-11-16T01:16:01.037Z,2.10
2022-11-16T01:16:33.015Z,2.10
2022-11-16T01:17:05.028Z,2.10
2022-11-16T01:17:40.801Z,2.00
2022-11-16T01:18:12.796Z,2.10
2022-11-16T01:18:48.086Z,1.83
2022-11-16T01:19:20.092Z,2.00
2022-11-16T01:19:52.371Z,2.33
2022-11-16T01:20:27.706Z,1.93
2022-11-16T01:20:59.707Z,2.23
2022-11-16T01:21:31.876Z,2.20
2022-11-16T01:22:04.329Z,1.90
2022-11-16T01:22:36.952Z,2.00
2022-11-16T01:23:09.026Z,2.13
2022-11-16T01:23:40.979Z,2.10
2022-11-16T01:24:13.044Z,2.00
2022-11-16T01:24:45.711Z,2.23
2022-11-16T01:25:18.323Z,2.17
2022-11-16T01:25:57.383Z,1.80
2022-11-16T01:26:30.468Z,2.13
2022-11-16T01:27:02.486Z,2.20
2022-11-16T01:27:37.087Z,2.57
2022-11-16T01:28:11.566Z,2.13
2022-11-16T01:28:52.714Z,2.30
2022-11-16T01:29:29.026Z,1.97
2022-11-16T01:30:04.482Z,2.23
2022-11-16T01:30:37.308Z,2.30
2022-11-16T01:31:12.852Z,2.20
2022-11-16T01:31:45.477Z,1.80
2022-11-16T01:32:17.546Z,1.90
2022-11-16T01:32:49.553Z,1.90
2022-11-16T01:33:22.241Z,2.03
2022-11-16T01:33:54.864Z,2.30
2022-11-16T01:34:30.053Z,2.30
2022-11-16T01:35:10.982Z,1.90
2022-11-16T01:35:43.404Z,2.20
2022-11-16T01:36:16.399Z,2.10
2022-11-16T01:36:48.925Z,2.50
2022-11-16T01:37:21.689Z,2.07
2022-11-16T01:37:54.242Z,2.23
2022-11-16T01:38:29.752Z,2.20
2022-11-16T01:39:03.895Z,2.00
2022-11-16T01:39:44.410Z,2.13
2022-11-16T01:40:16.444Z,2.00
2022-11-16T01:40:49.136Z,1.80
2022-11-16T01:41:22.320Z,2.20
2022-11-16T01:41:58.439Z,1.97
2022-11-16T01:42:30.842Z,2.10
2022-11-16T01:43:16.682Z,2.13
2022-11-16T01:43:54.303Z,1.87
2022-11-16T01:44:33.898Z,2.20
2022-11-16T01:45:31.398Z,2.20
2022-11-16T01:46:04.082Z,2.00
2022-11-16T01:46:36.830Z,1.90
2022-11-16T01:47:11.861Z,2.13
2022-11-16T01:47:44.155Z,2.17
2022-11-16T01:48:20.205Z,2.07
2022-11-16T01:48:54.613Z,1.90
2022-11-16T01:49:28.365Z,2.13
2022-11-16T01:50:10.037Z,1.80
2022-11-16T01:50:43.122Z,1.90
2022-11-16T01:51:15.264Z,2.00
2022-11-16T01:51:49.284Z,1.77
2022-11-16T01:52:23.111Z,1.90
2022-11-16T01:52:57.270Z,2.00
2022-11-16T01:53:31.183Z,1.70
2022-11-16T01:54:05.621Z,2.10
2022-11-16T01:54:40.212Z,1.90
2022-11-16T01:55:13.029Z,1.77
2022-11-16T01:56:05.579Z,2.00
2022-11-16T01:56:52.500Z,1.97
2022-11-16T01:57:39.871Z,1.73
2022-11-16T01:58:15.562Z,2.10
2022-11-16T01:58:47.659Z,1.83
2022-11-16T01:59:25.601Z,2.03
2022-11-16T01:59:58.937Z,1.93
2022-11-16T02:00:34.697Z,1.90
2022-11-16T02:01:25.440Z,2.00
2022-11-16T02:02:01.706Z,2.07
2022-11-16T02:02:34.493Z,1.90
2022-11-16T02:03:07.242Z,2.00
2022-11-16T02:03:47.069Z,1.73
2022-11-16T02:04:19.238Z,2.07
2022-11-16T02:04:57.710Z,1.90
2022-11-16T02:05:44.561Z,2.10
2022-11-16T02:06:29.075Z,2.10
2022-11-16T02:07:25.409Z,1.80
2022-11-16T02:08:28.924Z,1.80
2022-11-16T02:09:25.943Z,2.00
2022-11-16T02:10:12.640Z,1.90
2022-11-16T02:11:03.508Z,1.83
2022-11-16T02:11:43.610Z,2.03
2022-11-16T02:12:37.239Z,1.77
2022-11-16T02:13:21.289Z,2.10
2022-11-16T02:14:11.972Z,1.90
2022-11-16T02:15:02.386Z,1.87
2022-11-16T02:15:38.354Z,1.60
2022-11-16T02:16:25.668Z,2.10
2022-11-16T02:17:07.101Z,1.70
2022-11-16T02:17:50.871Z,1.80
2022-11-16T02:18:49.131Z,1.97
2022-11-16T02:19:27.971Z,1.83
2022-11-16T02:20:17.734Z,1.83
2022-11-16T02:21:07.312Z,1.90
2022-11-16T02:21:42.225Z,2.07
2022-11-16T02:22:30.487Z,1.93
2022-11-16T02:23:12.248Z,2.03
2022-11-16T02:23:53.619Z,1.90
2022-11-16T02:24:44.356Z,1.70
2022-11-16T02:25:21.713Z,1.80
2022-11-16T02:26:01.054Z,1.60
2022-11-16T02:26:44.968Z,1.60
2022-11-16T02:27:16.907Z,2.30
2022-11-16T02:28:14.629Z,1.67
2022-11-16T02:28:46.581Z,2.13
2022-11-16T02:29:39.787Z,1.80
2022-11-16T02:30:12.191Z,1.70
2022-11-16T02:30:50.645Z,1.93
2022-11-16T02:31:28.158Z,1.80
2022-11-16T02:32:04.483Z,2.00
2022-11-16T02:32:44.134Z,1.80
2022-11-16T02:33:21.299Z,1.70
2022-11-16T02:33:53.777Z,1.97
2022-11-16T02:34:29.648Z,1.60
2022-11-16T02:35:06.237Z,2.10
2022-11-16T02:35:40.936Z,1.93
2022-11-16T02:36:15.594Z,2.20
2022-11-16T02:36:49.456Z,1.77
2022-11-16T02:37:23.515Z,1.70
2022-11-16T02:38:03.570Z,1.63
2022-11-16T02:38:37.903Z,1.80
2022-11-16T02:39:14.797Z,1.70
2022-11-16T02:39:47.288Z,1.60
2022-11-16T02:40:21.174Z,1.70
2022-11-16T02:40:55.914Z,1.83
2022-11-16T02:41:33.595Z,1.80
2022-11-16T02:42:08.186Z,1.67
2022-11-16T02:42:51.900Z,1.93
2022-11-16T02:43:34.139Z,1.70
2022-11-16T02:44:10.935Z,2.03
2022-11-16T02:44:45.187Z,1.80
2022-11-16T02:45:22.526Z,1.93
2022-11-16T02:45:58.196Z,1.60
2022-11-16T02:46:35.756Z,1.77
2022-11-16T02:47:12.557Z,1.77
2022-11-16T02:47:46.055Z,1.67
2022-11-16T02:48:22.258Z,1.90
2022-11-16T02:48:55.804Z,1.87
2022-11-16T02:49:28.846Z,1.80
2022-11-16T02:50:06.597Z,2.00
2022-11-16T02:50:39.149Z,1.70
2022-11-16T02:51:11.414Z,1.80
2022-11-16T02:51:44.868Z,1.67
2022-11-16T02:52:17.748Z,1.83
2022-11-16T02:52:49.731Z,1.90
2022-11-16T02:53:22.363Z,1.90
2022-11-16T02:54:02.402Z,1.90
2022-11-16T02:54:35.440Z,2.00
2022-11-16T02:55:07.578Z,1.77
2022-11-16T02:55:39.632Z,1.80
2022-11-16T02:56:13.554Z,1.90
2022-11-16T02:56:53.949Z,1.77
2022-11-16T02:57:29.731Z,1.90
2022-11-16T02:58:04.908Z,1.90
2022-11-16T02:58:38.006Z,1.90
2022-11-16T02:59:13.029Z,1.60
2022-11-16T02:59:50.670Z,1.80
2022-11-16T03:00:25.590Z,1.90
2022-11-16T03:01:03.359Z,2.00
2022-11-16T03:01:38.127Z,1.83
2022-11-16T03:02:10.045Z,1.63
2022-11-16T03:02:42.096Z,1.60
2022-11-16T03:03:21.181Z,1.93
2022-11-16T03:03:57.246Z,1.73
2022-11-16T03:04:37.594Z,1.80
2022-11-16T03:05:11.690Z,1.73
2022-11-16T03:06:01.241Z,1.60
2022-11-16T03:06:36.168Z,2.03
2022-11-16T03:07:10.172Z,2.10
2022-11-16T03:07:49.222Z,1.50
2022-11-16T03:08:56.581Z,1.80
2022-11-16T03:09:30.747Z,1.67
2022-11-16T03:10:02.750Z,1.93
2022-11-16T03:10:55.754Z,1.53
2022-11-16T03:11:47.204Z,1.63
2022-11-16T03:12:22.560Z,1.67
2022-11-16T03:12:54.615Z,1.60
2022-11-16T03:13:28.080Z,1.67
2022-11-16T03:14:01.918Z,1.73
2022-11-16T03:14:50.666Z,1.67
2022-11-16T03:15:22.838Z,1.77
2022-11-16T03:15:55.811Z,1.80
2022-11-16T03:16:31.637Z,1.63
2022-11-16T03:17:06.824Z,1.80
2022-11-16T03:17:43.906Z,1.73
2022-11-16T03:18:16.390Z,1.47
2022-11-16T03:18:50.217Z,1.73
2022-11-16T03:19:25.690Z,1.50
2022-11-16T03:20:01.286Z,1.80
2022-11-16T03:20:38.747Z,1.70
2022-11-16T03:21:16.543Z,1.70
2022-11-16T03:21:55.492Z,1.80
2022-11-16T03:22:33.351Z,1.70
2022-11-16T03:23:09.178Z,1.80
2022-11-16T03:23:41.191Z,1.57
2022-11-16T03:24:13.465Z,1.60
2022-11-16T03:24:45.572Z,1.80
2022-11-16T03:25:19.835Z,1.80
2022-11-16T03:25:56.936Z,1.70
2022-11-16T03:26:31.822Z,1.53
2022-11-16T03:27:12.706Z,1.73
2022-11-16T03:27:50.656Z,1.67
2022-11-16T03:28:45.705Z,1.80
2022-11-16T03:29:23.657Z,1.87
2022-11-16T03:30:21.133Z,1.53
2022-11-16T03:31:00.963Z,1.50
2022-11-16T03:31:45.457Z,1.50
2022-11-16T03:32:23.388Z,1.63
2022-11-16T03:33:09.013Z,1.60
2022-11-16T03:33:50.336Z,1.30
2022-11-16T03:34:24.855Z,1.30
2022-11-16T03:35:04.474Z,1.60
2022-11-16T03:35:55.493Z,1.60
2022-11-16T03:36:31.037Z,1.70
2022-11-16T03:37:04.105Z,1.67
2022-11-16T03:37:36.924Z,1.57
2022-11-16T03:38:10.243Z,1.70
2022-11-16T03:38:47.436Z,1.33
2022-11-16T03:39:21.979Z,1.60
2022-11-16T03:39:54.765Z,1.57
2022-11-16T03:40:30.181Z,1.60
2022-11-16T03:41:03.754Z,1.80
2022-11-16T03:41:37.325Z,1.47
2022-11-16T03:42:11.962Z,1.50
2022-11-16T03:42:49.592Z,1.83
2022-11-16T03:43:24.141Z,1.50
2022-11-16T03:43:57.870Z,1.53
2022-11-16T03:44:30.374Z,1.50
2022-11-16T03:45:03.038Z,1.70
2022-11-16T03:45:36.183Z,1.57
2022-11-16T03:46:09.829Z,1.63
2022-11-16T03:46:43.019Z,1.53
2022-11-16T03:47:16.702Z,1.60
2022-11-16T03:47:48.712Z,1.60
2022-11-16T03:48:20.973Z,1.90
2022-11-16T03:49:02.225Z,1.47
2022-11-16T03:49:38.921Z,1.57
2022-11-16T03:50:11.194Z,1.57
2022-11-16T03:50:44.955Z,1.37
2022-11-16T03:51:18.039Z,1.60
2022-11-16T03:51:50.987Z,1.60
2022-11-16T03:52:23.031Z,1.53
2022-11-16T03:52:55.876Z,1.60
2022-11-16T03:53:28.237Z,1.60
2022-11-16T03:54:00.281Z,1.53
2022-11-16T03:54:32.889Z,1.47
2022-11-16T03:55:06.189Z,1.50
2022-11-16T03:55:39.447Z,1.60
2022-11-16T03:56:11.422Z,1.40
2022-11-16T03:56:44.381Z,1.60
2022-11-16T03:57:18.473Z,1.60
2022-11-16T03:57:55.707Z,1.60
2022-11-16T03:58:29.201Z,1.40
2022-11-16T03:59:01.620Z,1.50
2022-11-16T03:59:34.799Z,1.30
2022-11-16T04:00:07.247Z,1.40
2022-11-16T04:00:45.467Z,1.70
2022-11-16T04:01:17.533Z,1.60
2022-11-16T04:01:51.023Z,1.60
2022-11-16T04:02:23.086Z,1.70
2022-11-16T04:02:56.978Z,1.70
2022-11-16T04:03:29.643Z,1.83
2022-11-16T04:04:02.525Z,1.90
2022-11-16T04:04:53.306Z,1.60
2022-11-16T04:05:45.437Z,1.67
2022-11-16T04:06:36.329Z,1.60
2022-11-16T04:07:28.932Z,1.50
2022-11-16T04:08:19.405Z,1.40
2022-11-16T04:09:10.219Z,1.47
2022-11-16T04:10:02.216Z,1.40
2022-11-16T04:10:54.052Z,1.40
2022-11-16T04:11:45.045Z,1.47
2022-11-16T04:12:35.807Z,1.40
2022-11-16T04:13:28.866Z,1.30
2022-11-16T04:14:19.690Z,1.50
2022-11-16T04:15:10.051Z,1.43
2022-11-16T04:16:00.613Z,1.40
2022-11-16T04:16:59.040Z,1.60
2022-11-16T04:17:50.365Z,1.63
2022-11-16T04:18:40.899Z,1.50
2022-11-16T04:19:31.664Z,1.60
2022-11-16T04:20:22.761Z,1.30
2022-11-16T04:21:14.991Z,1.60
2022-11-16T04:22:11.924Z,1.20
2022-11-16T04:23:09.209Z,1.43
2022-11-16T04:23:59.890Z,1.47
2022-11-16T04:24:35.007Z,1.40
2022-11-16T04:25:12.301Z,1.40
2022-11-16T04:25:45.219Z,1.30
2022-11-16T04:26:40.849Z,1.43
2022-11-16T04:27:32.594Z,1.57
2022-11-16T04:28:14.795Z,1.10
2022-11-16T04:28:51.490Z,1.60
2022-11-16T04:29:23.906Z,1.50
2022-11-16T04:29:56.661Z,1.50
2022-11-16T04:30:49.694Z,1.40
2022-11-16T04:31:40.368Z,1.30
2022-11-16T04:32:34.833Z,1.50
2022-11-16T04:33:25.458Z,1.43
2022-11-16T04:34:15.705Z,1.40
2022-11-16T04:35:11.404Z,1.60
2022-11-16T04:36:01.793Z,1.47
2022-11-16T04:36:52.541Z,1.50
2022-11-16T04:37:43.371Z,1.50
2022-11-16T04:38:16.026Z,1.20
2022-11-16T04:38:48.035Z,1.40
2022-11-16T04:39:20.350Z,1.50
2022-11-16T04:39:52.847Z,1.57
2022-11-16T04:40:29.462Z,1.63
2022-11-16T04:41:02.310Z,1.10
2022-11-16T04:41:53.269Z,1.37
2022-11-16T04:42:25.449Z,1.60
2022-11-16T04:42:58.488Z,1.50
2022-11-16T04:43:31.306Z,1.20
2022-11-16T04:44:03.311Z,1.40
2022-11-16T04:44:55.021Z,1.37
2022-11-16T04:45:48.455Z,1.47
2022-11-16T04:46:41.767Z,1.57
2022-11-16T04:47:13.762Z,1.40
2022-11-16T04:47:48.227Z,1.60
2022-11-16T04:48:20.903Z,1.43
2022-11-16T04:48:56.354Z,1.40
2022-11-16T04:49:28.446Z,1.30
2022-11-16T04:50:02.410Z,1.30
2022-11-16T04:50:35.013Z,1.50
2022-11-16T04:51:07.524Z,1.30
2022-11-16T04:51:40.074Z,1.40
2022-11-16T04:52:12.149Z,1.43
2022-11-16T04:52:44.954Z,1.50
2022-11-16T04:53:18.534Z,1.40
2022-11-16T04:53:58.427Z,1.50
2022-11-16T04:54:30.427Z,1.33
2022-11-16T04:55:02.706Z,1.40
2022-11-16T04:55:35.217Z,1.37
2022-11-16T04:56:07.475Z,1.50
2022-11-16T04:56:39.645Z,1.20
2022-11-16T04:57:11.760Z,1.40
2022-11-16T04:57:43.746Z,1.40
2022-11-16T04:58:16.290Z,1.20
2022-11-16T04:58:48.690Z,1.30
2022-11-16T04:59:21.063Z,1.60
2022-11-16T04:59:53.096Z,1.40
2022-11-16T05:00:25.385Z,1.20
2022-11-16T05:00:57.448Z,1.47
2022-11-16T05:01:48.118Z,1.60
2022-11-16T05:02:20.582Z,1.43
2022-11-16T05:03:00.975Z,1.40
2022-11-16T05:03:34.283Z,1.50
2022-11-16T05:04:06.645Z,1.43
2022-11-16T05:04:40.052Z,1.23
2022-11-16T05:05:12.429Z,1.53
2022-11-16T05:05:49.177Z,1.40
2022-11-16T05:06:21.359Z,1.20
2022-11-16T05:06:53.601Z,1.60
2022-11-16T05:07:25.942Z,1.50
2022-11-16T05:08:05.268Z,1.30
2022-11-16T05:08:38.258Z,1.60
2022-11-16T05:09:10.603Z,1.43
2022-11-16T05:09:43.581Z,1.40
2022-11-16T05:10:17.270Z,1.57
2022-11-16T05:10:50.715Z,1.20
2022-11-16T05:11:23.765Z,1.40
2022-11-16T05:11:55.857Z,1.30
2022-11-16T05:12:28.412Z,1.20
2022-11-16T05:13:03.655Z,1.50
2022-11-16T05:13:35.640Z,1.90
2022-11-16T05:14:08.800Z,1.60
2022-11-16T05:14:41.763Z,1.40
2022-11-16T05:15:13.893Z,1.70
2022-11-16T05:15:46.227Z,1.57
2022-11-16T05:16:18.422Z,1.40
2022-11-16T05:16:50.653Z,1.43
2022-11-16T05:17:23.326Z,1.40
2022-11-16T05:17:55.800Z,1.50
2022-11-16T05:18:30.061Z,1.30
2022-11-16T05:19:21.589Z,1.40
2022-11-16T05:20:12.006Z,1.50
2022-11-16T05:21:01.019Z,1.40
2022-11-16T05:21:36.367Z,1.50
2022-11-16T05:22:08.391Z,1.40
2022-11-16T05:22:40.668Z,1.50
2022-11-16T05:23:32.741Z,1.30
2022-11-16T05:24:28.986Z,1.27
2022-11-16T05:25:00.970Z,1.20
2022-11-16T05:25:36.683Z,1.40
2022-11-16T05:26:11.829Z,1.40
2022-11-16T05:26:44.051Z,1.30
2022-11-16T05:27:17.051Z,1.40
2022-11-16T05:27:49.116Z,1.33
2022-11-16T05:28:21.300Z,1.33
2022-11-16T05:28:53.342Z,1.23
2022-11-16T05:29:25.938Z,1.30
2022-11-16T05:29:58.379Z,1.40
2022-11-16T05:30:30.504Z,1.40
2022-11-16T05:31:04.512Z,1.10
2022-11-16T05:31:40.411Z,1.30
2022-11-16T05:32:13.860Z,1.30
2022-11-16T05:32:46.271Z,1.30
2022-11-16T05:33:20.128Z,1.50
2022-11-16T05:33:52.262Z,1.33
2022-11-16T05:34:25.230Z,1.27
2022-11-16T05:34:57.294Z,1.30
2022-11-16T05:35:29.961Z,1.30
2022-11-16T05:36:01.943Z,1.60
2022-11-16T05:36:34.010Z,1.40
2022-11-16T05:37:06.764Z,1.70
2022-11-16T05:37:38.982Z,1.80
2022-11-16T05:38:11.199Z,1.77
2022-11-16T05:38:50.688Z,1.93
2022-11-16T05:39:25.152Z,1.80
2022-11-16T05:39:57.583Z,1.60
2022-11-16T05:40:39.167Z,2.00
2022-11-16T05:41:11.375Z,2.20
2022-11-16T05:41:43.466Z,1.97
2022-11-16T05:42:15.846Z,2.10
2022-11-16T05:42:47.804Z,2.40
2022-11-16T05:43:19.749Z,2.30
2022-11-16T05:44:00.195Z,2.00
2022-11-16T05:44:32.291Z,2.10
2022-11-16T05:45:04.439Z,2.00
2022-11-16T05:45:36.457Z,2.37
2022-11-16T05:46:08.901Z,1.90
2022-11-16T05:46:41.121Z,2.07
2022-11-16T05:47:13.632Z,2.30
2022-11-16T05:47:45.600Z,2.20
2022-11-16T05:48:17.636Z,2.43
2022-11-16T05:48:49.874Z,2.83
2022-11-16T05:49:22.478Z,2.20
2022-11-16T05:49:54.458Z,3.30
2022-11-16T05:50:26.560Z,2.73
2022-11-16T05:51:10.177Z,2.50
2022-11-16T05:51:44.144Z,2.20
2022-11-16T05:52:16.118Z,2.50
2022-11-16T05:52:50.160Z,2.97
2022-11-16T05:53:22.112Z,2.70
2022-11-16T05:53:54.343Z,2.93
2022-11-16T05:54:28.143Z,3.67
2022-11-16T05:55:00.590Z,3.07
2022-11-16T05:55:35.491Z,3.60
2022-11-16T05:56:07.838Z,4.20
2022-11-16T05:56:43.453Z,3.37
2022-11-16T05:57:15.923Z,3.40
2022-11-16T05:57:47.893Z,4.20
2022-11-16T05:58:20.473Z,3.83
2022-11-16T05:58:54.285Z,3.10
2022-11-16T05:59:27.740Z,3.30
2022-11-16T06:00:01.346Z,3.00
2022-11-16T06:00:34.495Z,3.27
2022-11-16T06:01:06.479Z,3.70
2022-11-16T06:01:38.549Z,3.27
2022-11-16T06:02:10.522Z,3.17
2022-11-16T06:02:42.620Z,3.27
2022-11-16T06:03:23.158Z,2.90
2022-11-16T06:03:55.285Z,3.40
2022-11-16T06:04:27.524Z,3.27
2022-11-16T06:05:00.127Z,3.30
2022-11-16T06:05:39.031Z,3.40
2022-11-16T06:06:12.675Z,4.00
2022-11-16T06:06:44.779Z,3.40
2022-11-16T06:07:17.801Z,3.50
2022-11-16T06:07:50.548Z,3.30
2022-11-16T06:08:22.937Z,3.47
2022-11-16T06:08:57.729Z,3.73
2022-11-16T06:09:31.688Z,3.70
2022-11-16T06:10:10.225Z,3.33
2022-11-16T06:10:42.851Z,3.43
2022-11-16T06:11:14.969Z,3.10
2022-11-16T06:11:48.133Z,2.83
2022-11-16T06:12:20.783Z,3.03
2022-11-16T06:12:53.551Z,2.67
2022-11-16T06:13:25.506Z,3.20
2022-11-16T06:14:01.427Z,2.87
2022-11-16T06:14:33.468Z,2.87
2022-11-16T06:15:05.631Z,3.20
2022-11-16T06:15:38.463Z,3.33
2022-11-16T06:16:11.469Z,2.90
2022-11-16T06:16:44.620Z,2.30
2022-11-16T06:17:16.646Z,3.03
2022-11-16T06:17:49.954Z,2.53
2022-11-16T06:18:22.105Z,2.80
2022-11-16T06:18:55.148Z,2.60
2022-11-16T06:19:32.164Z,2.57
2022-11-16T06:20:04.855Z,2.73
2022-11-16T06:20:38.006Z,2.53
2022-11-16T06:21:10.913Z,2.93
2022-11-16T06:21:43.055Z,2.93
2022-11-16T06:22:21.044Z,2.80
2022-11-16T06:22:53.489Z,2.60
2022-11-16T06:23:26.319Z,2.40
2022-11-16T06:23:59.289Z,2.87
2022-11-16T06:24:31.318Z,2.53
2022-11-16T06:25:04.899Z,2.60
2022-11-16T06:25:38.530Z,2.50
2022-11-16T06:26:10.877Z,2.30
2022-11-16T06:26:43.041Z,2.60
2022-11-16T06:27:15.979Z,2.90
2022-11-16T06:27:49.032Z,2.60
2022-11-16T06:28:23.365Z,2.50
2022-11-16T06:28:55.406Z,2.60
2022-11-16T06:29:28.262Z,2.43
2022-11-16T06:30:00.848Z,2.50
2022-11-16T06:30:33.008Z,2.23
2022-11-16T06:31:06.257Z,2.50
2022-11-16T06:31:42.493Z,2.13
2022-11-16T06:32:14.698Z,3.07
2022-11-16T06:32:46.859Z,2.50
2022-11-16T06:33:19.786Z,2.70
2022-11-16T06:33:51.906Z,2.20
2022-11-16T06:34:28.374Z,2.60
2022-11-16T06:35:00.933Z,2.40
2022-11-16T06:35:33.431Z,2.37
2022-11-16T06:36:06.126Z,2.27
2022-11-16T06:36:38.156Z,2.50
2022-11-16T06:37:10.325Z,2.70
2022-11-16T06:37:42.347Z,2.50
2022-11-16T06:38:18.582Z,2.50
2022-11-16T06:38:52.284Z,2.30
2022-11-16T06:39:25.373Z,2.70
2022-11-16T06:39:57.530Z,2.40
2022-11-16T06:40:29.531Z,2.47
2022-11-16T06:41:01.768Z,2.53
2022-11-16T06:41:40.212Z,2.17
2022-11-16T06:42:13.885Z,2.17
2022-11-16T06:42:46.162Z,2.43
2022-11-16T06:43:19.449Z,2.03
2022-11-16T06:43:51.457Z,2.37
2022-11-16T06:44:26.466Z,2.23
2022-11-16T06:45:03.808Z,2.30
2022-11-16T06:45:41.804Z,2.37
2022-11-16T06:46:13.861Z,2.67
2022-11-16T06:46:45.829Z,2.37
2022-11-16T06:47:17.782Z,2.43
2022-11-16T06:47:50.327Z,2.47
2022-11-16T06:48:22.619Z,2.17
2022-11-16T06:48:56.102Z,2.33
2022-11-16T06:49:28.120Z,2.57
2022-11-16T06:50:03.971Z,2.13
2022-11-16T06:50:36.026Z,2.23
2022-11-16T06:51:08.040Z,2.80
2022-11-16T06:51:40.306Z,2.10
2022-11-16T06:52:12.701Z,2.37
2022-11-16T06:52:48.766Z,2.23
2022-11-16T06:53:27.561Z,2.17
2022-11-16T06:54:01.413Z,2.43
2022-11-16T06:54:33.756Z,2.20
2022-11-16T06:55:06.104Z,2.30
2022-11-16T06:55:40.108Z,2.50
2022-11-16T06:56:13.490Z,2.33
2022-11-16T06:56:49.630Z,2.40
2022-11-16T06:57:22.020Z,2.40
2022-11-16T06:57:54.528Z,2.10
2022-11-16T06:58:26.494Z,2.13
2022-11-16T06:58:58.576Z,2.50
2022-11-16T06:59:32.640Z,2.37
2022-11-16T07:00:05.075Z,2.30
2022-11-16T07:00:38.998Z,2.43
2022-11-16T07:01:11.662Z,2.10
2022-11-16T07:01:45.906Z,2.20
2022-11-16T07:02:21.385Z,2.00
2022-11-16T07:02:53.927Z,2.70
2022-11-16T07:03:25.910Z,2.00
2022-11-16T07:03:57.958Z,2.30
2022-11-16T07:04:31.652Z,2.10
2022-11-16T07:05:04.755Z,2.00
2022-11-16T07:05:41.936Z,1.97
2022-11-16T07:06:18.286Z,2.30
2022-11-16T07:06:51.304Z,2.00
2022-11-16T07:07:23.537Z,1.87
2022-11-16T07:07:55.546Z,2.10
2022-11-16T07:08:27.946Z,2.00
2022-11-16T07:08:59.902Z,2.27
2022-11-16T07:09:35.637Z,2.20
2022-11-16T07:10:08.371Z,2.17
2022-11-16T07:10:41.198Z,2.00
2022-11-16T07:11:13.350Z,1.90
2022-11-16T07:11:45.408Z,2.40
2022-11-16T07:12:19.275Z,1.80
2022-11-16T07:12:51.354Z,2.20
2022-11-16T07:13:25.216Z,2.00
2022-11-16T07:13:57.266Z,2.30
2022-11-16T07:14:29.652Z,2.00
2022-11-16T07:15:01.951Z,2.00
2022-11-16T07:15:36.170Z,2.00
2022-11-16T07:16:09.207Z,1.90
2022-11-16T07:16:43.105Z,1.87
2022-11-16T07:17:16.018Z,2.00
2022-11-16T07:17:48.094Z,2.33
2022-11-16T07:18:20.118Z,2.07
2022-11-16T07:18:52.817Z,1.50
2022-11-16T07:19:24.958Z,1.80
2022-11-16T07:19:57.422Z,1.63
2022-11-16T07:20:29.425Z,2.10
2022-11-16T07:21:08.374Z,2.03
2022-11-16T07:21:40.546Z,2.13
2022-11-16T07:22:17.984Z,1.70
2022-11-16T07:22:49.958Z,2.03
2022-11-16T07:23:23.081Z,1.97
2022-11-16T07:23:55.707Z,2.00
2022-11-16T07:24:28.004Z,2.17
2022-11-16T07:25:00.903Z,2.17
2022-11-16T07:25:33.631Z,2.10
2022-11-16T07:26:07.434Z,2.17
2022-11-16T07:26:45.697Z,2.20
2022-11-16T07:27:21.932Z,2.00
2022-11-16T07:27:57.785Z,2.10
2022-11-16T07:28:30.123Z,1.97
2022-11-16T07:29:02.596Z,2.23
2022-11-16T07:29:35.647Z,2.00
2022-11-16T07:30:30.627Z,1.87
2022-11-16T07:31:10.820Z,2.03
2022-11-16T07:31:43.363Z,2.23
2022-11-16T07:32:39.952Z,2.10
2022-11-16T07:33:28.207Z,2.03
2022-11-16T07:34:18.737Z,1.97
2022-11-16T07:35:07.780Z,2.20
2022-11-16T07:35:41.241Z,2.00
2022-11-16T07:36:14.520Z,2.17
2022-11-16T07:36:46.814Z,1.80
2022-11-16T07:37:18.794Z,2.40
2022-11-16T07:37:50.793Z,1.73
2022-11-16T07:38:22.858Z,2.23
2022-11-16T07:38:55.895Z,1.90
2022-11-16T07:39:29.052Z,1.90
2022-11-16T07:40:01.870Z,2.33
2022-11-16T07:40:34.513Z,2.37
2022-11-16T07:41:10.811Z,2.33
2022-11-16T07:41:47.431Z,1.93
2022-11-16T07:42:33.014Z,1.90
2022-11-16T07:43:23.639Z,2.17
2022-11-16T07:44:12.292Z,2.30
2022-11-16T07:44:46.682Z,1.83
2022-11-16T07:45:19.178Z,2.00
2022-11-16T07:47:05.174Z,2.13
2022-11-16T07:47:38.588Z,2.40
2022-11-16T07:48:13.221Z,2.10
2022-11-16T07:49:10.975Z,1.90
2022-11-16T07:49:55.603Z,2.27
2022-11-16T07:50:30.894Z,2.10
2022-11-16T07:51:04.595Z,2.23
2022-11-16T07:51:37.829Z,2.10
2022-11-16T07:52:23.646Z,1.87
2022-11-16T07:53:14.481Z,1.80
2022-11-16T07:53:46.538Z,2.20
2022-11-16T07:54:18.542Z,2.13
2022-11-16T07:54:50.504Z,2.13
2022-11-16T07:55:25.026Z,1.60
2022-11-16T07:55:58.018Z,2.10
2022-11-16T07:56:32.008Z,1.90
2022-11-16T07:57:04.367Z,2.10
2022-11-16T07:57:36.421Z,1.97
2022-11-16T07:58:11.269Z,2.20